Kolkata, India

3:10 AM IST on February 11, 2016 (GMT +0530)
Netaji Subhash Chandra Bose International | | Change Station
CLOSE
Current Station
Airport
Location: Kolkata,
Elevation: 20 ft
Nearby Weather Stations

Elev 20 ft 22.65 °N, 88.44 °E | Updated 10 minutes ago

Scattered Clouds
Scattered Clouds
70 °F
Feels Like 70 °F
N
6
Wind Variable Wind from SSW

Today
High -- | Low -- °F
--% Chance of Precip.
Yesterday
High -- | Low -- °F
Precip. -- in
Pressure 29.83 in
Visibility 0.9 miles
Clouds Scattered Clouds 1800 ft
Scattered Clouds 10000 ft
Dew Point 68 °F
Humidity 94%
Rainfall 0.00 in
Snow Depth Not available.
6:11 AM 5:30 PM
Waxing Crescent, 7% visible
METAR VECC 102130Z 21005KT 1500 BR SCT018 SCT100 21/20 Q1010 NOSIG
Pressure 29.83 in
Visibility 0.9 miles
Clouds Scattered Clouds 1800 ft
Scattered Clouds 10000 ft
Dew Point 68 °F
Humidity 94%
Rainfall 0.00 in
Snow Depth Not available.
6:11 AM 5:30 PM
Waxing Crescent, 7% visible
METAR VECC 102130Z 21005KT 1500 BR SCT018 SCT100 21/20 Q1010 NOSIG

10-Day Weather Forecast

No radar image for this location.
×

Almanac

Astronomy

Feb. 11, 2016 Rise Set
Actual Time
Civil Twilight
Nautical Twilight
Astronomical Twilight
Moon
Length of Visible Light
Length of Day
Tomorrow will be .
, % of the Moon is Illuminated

Today's Extremes

Country Highs Country Lows

Community

WunderPhotos

Upload Photos

1,891,950 photos uploaded!

WunderBlog® & News

Nearby

Air Quality

  Air Quality AQ Index Pollutant
Not available.

Snow Depth

Station Depth Elevation

Earthquake Activity

City Distance Mag. Time & Date
Minimum magnitude displayed is 2.5.

Coastal Water Temperatures

Place Temperature

Stations

Nearby Weather Stations

Station Location Temp. Windchill Dew Point Humidity Wind Precip. Elev Updated Type